Item Display Status Inductive CT Sensor

Mooring Depth: 5 m

 

Deployed Sensor

  • Serial Number: 1681
  • NDBC Property Number: 21075
  • Start Date: 11/5/2018 (13:33:04 Z)
  • End Date: Currently Active
Water Temperature [°C]     6 entries per hour
Showing data from 11/19/2019 (14:00:00 Z) to 11/18/2019 (00:00:01 Z)
Previous Next [ Day | 3-Days | 7-Days ]
First Last
Prev [ Day | 3-Days | 7-Days ] Next
First Last

Start Time:     :
End Time:     :     
Time (in GMT) :00 :50 :40 :30 :20 :10
Previous Next [ Day | 3-Days | 7-Days ]
First Last
Prev [ Day | 3-Days | 7-Days ] Next
First Last


123 => good data
MM => data is determined as missing
-- => data not received/configured
Back to Top Back to Top
11/19/2019 14:00 to 13:10 24.141 24.143 24.147 24.145 24.146 24.142
11/19/2019 13:00 to 12:10 24.140 24.143 24.143 24.147 24.150 24.152
11/19/2019 12:00 to 11:10 24.153 24.152 24.156 24.161 24.161 24.159
11/19/2019 11:00 to 10:10 24.164 24.167 24.164 24.166 24.163 24.174
11/19/2019 10:00 to 9:10 24.173 24.170 24.176 24.173 -- --
11/19/2019 09:00 to 8:10 24.173 24.167 24.165 24.179 24.188 24.191
11/19/2019 08:00 to 7:10 24.185 24.182 24.188 24.189 24.187 24.189
11/19/2019 07:00 to 6:10 24.191 24.187 24.181 24.186 24.187 24.185
11/19/2019 06:00 to 5:10 24.190 24.189 24.194 24.194 24.191 24.208
11/19/2019 05:00 to 4:10 24.214 24.218 24.224 24.223 24.230 24.219
11/19/2019 04:00 to 3:10 24.220 24.228 24.231 24.248 24.246 24.250
11/19/2019 03:00 to 2:10 24.246 24.243 24.240 24.248 24.258 24.249
11/19/2019 02:00 to 1:10 24.265 24.273 24.272 24.275 24.271 24.291
11/19/2019 01:00 to 0:10 24.286 -- 24.292 24.310 24.323 24.330
11/19/2019 00:00 to 23:10 24.332 24.334 24.266 24.324 24.368 24.352
11/18/2019 23:00 to 22:10 24.339 24.361 24.354 24.302 24.384 24.360
11/18/2019 22:00 to 21:10 24.338 24.379 24.313 24.356 24.327 24.327
11/18/2019 21:00 to 20:10 24.331 24.332 24.312 24.340 24.299 24.304
11/18/2019 20:00 to 19:10 24.277 24.297 24.280 24.245 24.274 24.253
11/18/2019 19:00 to 18:10 24.254 24.250 24.233 24.219 24.238 24.227
11/18/2019 18:00 to 17:10 24.223 24.208 24.227 24.194 24.194 24.183
11/18/2019 17:00 to 16:10 24.186 24.189 24.194 24.176 24.161 24.156
11/18/2019 16:00 to 15:10 24.166 24.165 24.163 24.161 24.156 24.159
11/18/2019 15:00 to 14:10 24.155 24.152 24.152 24.149 24.146 24.146
11/18/2019 14:00 to 13:10 24.146 24.145 24.144 24.141 24.144 24.142
11/18/2019 13:00 to 12:10 24.145 24.147 24.142 24.149 24.152 24.150
11/18/2019 12:00 to 11:10 24.153 24.153 24.145 24.148 24.154 24.165
11/18/2019 11:00 to 10:10 24.168 24.170 24.174 24.176 24.177 24.172
11/18/2019 10:00 to 9:10 24.177 24.183 24.178 24.171 24.183 24.185
11/18/2019 09:00 to 8:10 24.178 24.190 24.183 24.176 24.182 24.185
11/18/2019 08:00 to 7:10 24.182 24.191 -- 24.199 24.201 24.196
11/18/2019 07:00 to 6:10 24.204 24.208 24.212 24.207 24.216 24.211
11/18/2019 06:00 to 5:10 24.214 24.225 24.230 24.223 24.211 24.221
11/18/2019 05:00 to 4:10 24.226 24.232 24.246 24.241 24.251 24.253
11/18/2019 04:00 to 3:10 24.243 24.257 24.252 24.254 24.248 24.252
11/18/2019 03:00 to 2:10 24.268 24.256 24.286 24.285 24.302 24.314
11/18/2019 02:00 to 1:10 24.342 24.349 24.348 24.361 24.362 24.350
11/18/2019 01:00 to 0:10 24.353 24.370 24.391 24.378 24.383 24.384

 

 

 

Conductivity [S/m]     6 entries per hour
Showing data from 11/19/2019 (14:00:00 Z) to 11/18/2019 (00:00:01 Z)
Previous Next [ Day | 3-Days | 7-Days ]
First Last
Prev [ Day | 3-Days | 7-Days ] Next
First Last

Start Time:     :
End Time:     :     
Time (in GMT) :00 :50 :40 :30 :20 :10
Previous Next [ Day | 3-Days | 7-Days ]
First Last
Prev [ Day | 3-Days | 7-Days ] Next
First Last


123 => good data
MM => data is determined as missing
-- => data not received/configured
Back to Top Back to Top
11/19/2019 14:00 to 13:10 5.19064 5.19091 5.19119 5.19104 5.19114 5.19076
11/19/2019 13:00 to 12:10 5.19071 5.19104 5.19094 5.19127 5.19152 5.19177
11/19/2019 12:00 to 11:10 5.19181 5.19186 5.19220 5.19275 5.19271 5.19243
11/19/2019 11:00 to 10:10 5.19309 5.19342 5.19306 5.19329 5.19289 5.19410
11/19/2019 10:00 to 9:10 5.19403 5.19373 5.19438 5.19405 5.19420 5.19431
11/19/2019 09:00 to 8:10 5.19410 5.19347 5.19327 5.19451 5.19547 5.19588
11/19/2019 08:00 to 7:10 5.19527 5.19504 5.19560 5.19567 5.19550 5.19563
11/19/2019 07:00 to 6:10 5.19583 5.19557 5.19474 5.19532 5.19545 5.19532
11/19/2019 06:00 to 5:10 5.19567 5.19555 5.19618 5.19621 5.19608 5.19753
11/19/2019 05:00 to 4:10 5.19829 5.19869 5.19948 5.19928 5.19996 5.19912
11/19/2019 04:00 to 3:10 5.19900 5.19978 5.20009 5.20184 5.20174 5.20214
11/19/2019 03:00 to 2:10 5.20174 5.20143 5.20100 5.20179 5.20288 5.20202
11/19/2019 02:00 to 1:10 5.20351 5.20453 5.20435 5.20491 5.20425 5.20631
11/19/2019 01:00 to 0:10 5.20585 5.20745 5.20661 5.20839 5.20971 5.21020
11/19/2019 00:00 to 23:10 5.21053 5.21091 5.20374 5.21002 5.21452 5.21300
11/18/2019 23:00 to 22:10 5.21124 5.21363 5.21292 5.20923 5.21559 5.21369
11/18/2019 22:00 to 21:10 5.21132 5.21536 5.20862 5.21318 5.20997 5.21015
11/18/2019 21:00 to 20:10 5.21216 5.21134 5.20847 5.21155 5.20717 5.20773
11/18/2019 20:00 to 19:10 5.20542 5.20717 5.20524 5.20138 5.20463 5.20072
11/18/2019 19:00 to 18:10 5.20260 5.20164 5.20001 5.19854 5.20072 5.19948
11/18/2019 18:00 to 17:10 5.19902 5.19773 5.19960 5.19603 5.19585 5.19479
11/18/2019 17:00 to 16:10 5.19507 5.19542 5.19585 5.19396 5.19228 5.19180
11/18/2019 16:00 to 15:10 5.19289 5.19279 5.19261 5.19258 5.19201 5.19225
11/18/2019 15:00 to 14:10 5.19177 5.19147 5.19150 5.19114 5.19076 5.19068
11/18/2019 14:00 to 13:10 5.19079 5.19058 5.19055 5.19017 5.19053 5.19033
11/18/2019 13:00 to 12:10 5.19051 5.19064 5.19042 5.19104 5.19117 5.19106
11/18/2019 12:00 to 11:10 5.19127 5.19134 5.19053 5.19086 5.19158 5.19281
11/18/2019 11:00 to 10:10 5.19309 5.19329 5.19381 5.19403 5.19417 5.19372
11/18/2019 10:00 to 9:10 5.19420 5.19486 5.19428 5.19363 5.19481 5.19507
11/18/2019 09:00 to 8:10 5.19438 5.19550 5.19479 5.19410 5.19466 5.19499
11/18/2019 08:00 to 7:10 5.19458 5.19547 5.19585 5.19641 5.19669 5.19588
11/18/2019 07:00 to 6:10 5.19689 5.19765 5.19798 5.19740 5.19826 5.19786
11/18/2019 06:00 to 5:10 5.19813 5.19923 5.19973 5.19892 5.19773 5.19869
11/18/2019 05:00 to 4:10 5.19928 5.19981 5.20141 5.20077 5.20189 5.20204
11/18/2019 04:00 to 3:10 5.20095 5.20227 5.20184 5.20199 5.20128 5.20164
11/18/2019 03:00 to 2:10 5.20334 5.20207 5.20547 5.20560 5.20720 5.20857
11/18/2019 02:00 to 1:10 5.21180 5.21249 5.21223 5.21374 5.21369 5.21234
11/18/2019 01:00 to 0:10 5.21226 5.21458 5.21659 5.21539 5.21605 5.21600

 

 

 

Salinity [psu]     6 entries per hour
Showing data from 11/19/2019 (14:00:00 Z) to 11/18/2019 (00:00:01 Z)
Previous Next [ Day | 3-Days | 7-Days ]
First Last
Prev [ Day | 3-Days | 7-Days ] Next
First Last

Start Time:     :
End Time:     :     
Time (in GMT) :00 :50 :40 :30 :20 :10
Previous Next [ Day | 3-Days | 7-Days ]
First Last
Prev [ Day | 3-Days | 7-Days ] Next
First Last


123 => good data
MM => data is determined as missing
-- => data not received/configured
Back to Top Back to Top
11/19/2019 14:00 to 13:10 34.80 34.80 34.80 34.80 34.80 34.80
11/19/2019 13:00 to 12:10 34.80 34.80 34.80 34.80 34.80 34.80
11/19/2019 12:00 to 11:10 34.79 34.80 34.80 34.80 34.80 34.79
11/19/2019 11:00 to 10:10 34.80 34.80 34.80 34.80 34.80 34.80
11/19/2019 10:00 to 9:10 34.80 34.80 34.80 34.80 -- --
11/19/2019 09:00 to 8:10 34.80 34.80 34.80 34.79 34.80 34.80
11/19/2019 08:00 to 7:10 34.80 34.80 34.80 34.80 34.80 34.80
11/19/2019 07:00 to 6:10 34.80 34.80 34.80 34.80 34.80 34.80
11/19/2019 06:00 to 5:10 34.80 34.80 34.80 34.80 34.80 34.80
11/19/2019 05:00 to 4:10 34.80 34.80 34.80 34.80 34.80 34.80
11/19/2019 04:00 to 3:10 34.80 34.80 34.80 34.80 34.80 34.80
11/19/2019 03:00 to 2:10 34.80 34.80 34.80 34.80 34.80 34.80
11/19/2019 02:00 to 1:10 34.80 34.80 34.80 34.80 34.80 34.80
11/19/2019 01:00 to 0:10 34.80 -- 34.80 34.80 34.80 34.80
11/19/2019 00:00 to 23:10 34.80 34.80 34.80 34.80 34.80 34.80
11/18/2019 23:00 to 22:10 34.80 34.80 34.80 34.81 34.79 34.80
11/18/2019 22:00 to 21:10 34.80 34.80 34.80 34.80 34.80 34.80
11/18/2019 21:00 to 20:10 34.81 34.80 34.80 34.80 34.80 34.80
11/18/2019 20:00 to 19:10 34.80 34.80 34.80 34.80 34.80 34.78
11/18/2019 19:00 to 18:10 34.80 34.79 34.79 34.79 34.80 34.79
11/18/2019 18:00 to 17:10 34.79 34.80 34.80 34.79 34.79 34.79
11/18/2019 17:00 to 16:10 34.79 34.79 34.79 34.79 34.79 34.79
11/18/2019 16:00 to 15:10 34.79 34.79 34.79 34.79 34.79 34.79
11/18/2019 15:00 to 14:10 34.79 34.79 34.79 34.79 34.79 34.79
11/18/2019 14:00 to 13:10 34.79 34.79 34.79 34.79 34.79 34.79
11/18/2019 13:00 to 12:10 34.79 34.79 34.79 34.79 34.79 34.79
11/18/2019 12:00 to 11:10 34.79 34.79 34.79 34.79 34.79 34.79
11/18/2019 11:00 to 10:10 34.79 34.79 34.79 34.79 34.79 34.79
11/18/2019 10:00 to 9:10 34.79 34.79 34.79 34.79 34.79 34.79
11/18/2019 09:00 to 8:10 34.79 34.79 34.79 34.79 34.79 34.79
11/18/2019 08:00 to 7:10 34.79 34.79 34.79 34.79 34.79 34.79
11/18/2019 07:00 to 6:10 34.79 34.80 34.80 34.79 34.79 34.80
11/18/2019 06:00 to 5:10 34.79 34.79 34.79 34.79 34.79 34.79
11/18/2019 05:00 to 4:10 34.79 34.79 34.79 34.79 34.79 34.79
11/18/2019 04:00 to 3:10 34.79 34.79 34.79 34.79 34.79 34.79
11/18/2019 03:00 to 2:10 34.79 34.79 34.79 34.80 34.79 34.80
11/18/2019 02:00 to 1:10 34.80 34.80 34.80 34.80 34.80 34.80
11/18/2019 01:00 to 0:10 34.79 34.80 34.80 34.80 34.80 34.80